createdAt,value
2022-08-12T00:00:34.995Z,25.32
2022-08-12T00:03:21.664Z,26.56
2022-08-12T00:06:07.420Z,25.65
2022-08-12T00:08:58.876Z,25.79
2022-08-12T00:11:44.854Z,25.97
2022-08-12T00:14:31.912Z,26.37
2022-08-12T00:17:17.276Z,26.22
2022-08-12T00:20:02.561Z,26.00
2022-08-12T00:22:58.730Z,25.46
2022-08-12T00:26:21.630Z,26.21
2022-08-12T00:28:50.444Z,26.17
2022-08-12T00:31:37.319Z,25.99
2022-08-12T00:34:22.820Z,25.80
2022-08-12T00:37:13.189Z,25.42
2022-08-12T00:39:59.359Z,25.85
2022-08-12T00:42:26.369Z,25.78
2022-08-12T00:44:54.667Z,23.40
2022-08-12T00:47:25.907Z,25.69
2022-08-12T00:49:54.532Z,25.31
2022-08-12T00:52:22.718Z,25.73
2022-08-12T00:54:52.493Z,25.84
2022-08-12T00:57:22.002Z,24.54
2022-08-12T00:59:50.630Z,24.42
2022-08-12T01:02:24.892Z,24.92
2022-08-12T01:05:13.916Z,25.15
2022-08-12T01:08:04.869Z,23.85
2022-08-12T01:10:51.410Z,25.55
2022-08-12T01:13:22.220Z,25.60
2022-08-12T01:15:51.702Z,24.58
2022-08-12T01:18:22.154Z,24.82
2022-08-12T01:20:57.114Z,23.50
2022-08-12T01:23:36.420Z,23.61
2022-08-12T01:26:06.807Z,25.46
2022-08-12T01:28:35.433Z,25.06
2022-08-12T01:31:05.896Z,25.22
2022-08-12T01:33:39.280Z,24.79
2022-08-12T01:36:08.999Z,24.98
2022-08-12T01:38:38.027Z,24.62
2022-08-12T01:41:07.907Z,25.30
2022-08-12T01:43:36.160Z,24.37
2022-08-12T01:46:08.035Z,24.43
2022-08-12T01:48:52.031Z,23.22
2022-08-12T01:52:15.438Z,24.57
2022-08-12T01:54:20.069Z,24.13
2022-08-12T01:56:52.369Z,24.01
2022-08-12T01:59:42.802Z,24.84
2022-08-12T02:17:55.901Z,24.48
2022-08-12T02:20:15.558Z,24.03
2022-08-12T02:22:44.974Z,24.15
2022-08-12T02:25:15.718Z,23.38
2022-08-12T02:27:49.911Z,22.47
2022-08-12T02:30:19.928Z,24.10
2022-08-12T02:32:52.042Z,23.81
2022-08-12T02:35:21.166Z,22.52
2022-08-12T02:37:50.182Z,23.93
2022-08-12T02:40:18.793Z,24.48
2022-08-12T02:42:54.996Z,24.20
2022-08-12T02:45:26.107Z,23.39
2022-08-12T02:48:00.698Z,24.41
2022-08-12T02:50:30.371Z,24.31
2022-08-12T02:52:58.243Z,24.35
2022-08-12T02:55:33.930Z,24.24
2022-08-12T02:58:06.713Z,24.26
2022-08-12T03:00:37.764Z,21.99
2022-08-12T03:03:08.931Z,22.46
2022-08-12T03:05:44.090Z,22.68
2022-08-12T03:08:31.594Z,24.13
2022-08-12T03:11:03.504Z,23.13
2022-08-12T03:13:33.648Z,23.19
2022-08-12T03:16:02.251Z,21.59
2022-08-12T03:18:32.580Z,23.23
2022-08-12T03:21:01.252Z,23.91
2022-08-12T03:23:31.080Z,23.89
2022-08-12T03:26:01.025Z,23.84
2022-08-12T03:29:02.048Z,22.16
2022-08-12T03:31:32.478Z,21.67
2022-08-12T03:34:03.595Z,22.30
2022-08-12T03:36:33.616Z,22.63
2022-08-12T03:39:16.384Z,22.23
2022-08-12T03:41:49.533Z,21.32
2022-08-12T03:44:36.230Z,23.67
2022-08-12T03:47:23.363Z,23.02
2022-08-12T03:50:11.620Z,23.62
2022-08-12T03:52:56.726Z,23.48
2022-08-12T03:55:42.544Z,23.22
2022-08-12T03:58:27.688Z,22.87
2022-08-12T04:00:55.704Z,23.49
2022-08-12T04:03:41.183Z,22.84
2022-08-12T04:06:11.407Z,21.53
2022-08-12T04:08:39.526Z,21.62
2022-08-12T04:11:28.016Z,22.84
2022-08-12T04:14:07.040Z,22.45
2022-08-12T04:16:36.254Z,23.10
2022-08-12T04:19:04.222Z,21.38
2022-08-12T04:21:34.062Z,23.40
2022-08-12T04:24:02.370Z,22.77
2022-08-12T04:26:30.518Z,22.78
2022-08-12T04:28:59.145Z,22.00
2022-08-12T04:31:33.855Z,22.66
2022-08-12T04:34:02.739Z,21.56
2022-08-12T04:36:31.061Z,22.35
2022-08-12T04:39:00.544Z,20.88
2022-08-12T04:41:28.792Z,23.36
2022-08-12T04:44:02.116Z,22.40
2022-08-12T04:46:33.604Z,22.29
2022-08-12T04:49:03.631Z,22.61
2022-08-12T04:51:31.560Z,23.28
2022-08-12T04:54:02.263Z,22.66
2022-08-12T04:56:30.583Z,21.53
2022-08-12T04:59:04.061Z,23.07
2022-08-12T05:01:32.811Z,23.38
2022-08-12T05:04:02.852Z,22.91
2022-08-12T05:11:53.897Z,23.05
2022-08-12T05:14:22.430Z,23.56
2022-08-12T05:16:50.563Z,23.62
2022-08-12T05:19:22.810Z,23.66
2022-08-12T05:21:50.992Z,23.71
2022-08-12T05:24:18.840Z,23.76
2022-08-12T05:26:47.233Z,23.79
2022-08-12T05:30:08.198Z,23.80
2022-08-12T05:32:06.233Z,23.82
2022-08-12T05:34:36.466Z,23.82
2022-08-12T05:37:04.987Z,23.85
2022-08-12T05:39:33.495Z,23.89
2022-08-12T05:42:01.593Z,23.93
2022-08-12T05:44:34.742Z,23.95
2022-08-12T05:47:02.705Z,24.07
2022-08-12T05:49:44.588Z,24.12
2022-08-12T05:52:12.639Z,24.30
2022-08-12T05:54:57.218Z,24.49
2022-08-12T05:57:25.905Z,24.63
2022-08-12T05:59:55.165Z,24.65
2022-08-12T06:02:23.092Z,24.96
2022-08-12T06:04:50.985Z,25.23
2022-08-12T06:07:59.408Z,25.73
2022-08-12T06:10:07.598Z,26.36
2022-08-12T06:12:35.492Z,26.98
2022-08-12T06:15:05.351Z,27.53
2022-08-12T06:17:33.203Z,28.12
2022-08-12T06:20:28.036Z,28.65
2022-08-12T06:22:48.979Z,29.22
2022-08-12T06:25:21.575Z,29.69
2022-08-12T06:28:06.389Z,30.21
2022-08-12T06:30:38.949Z,30.74
2022-08-12T06:33:21.526Z,31.22
2022-08-12T06:35:51.473Z,31.56
2022-08-12T06:38:20.859Z,32.17
2022-08-12T06:41:08.595Z,32.58
2022-08-12T06:44:04.298Z,33.08
2022-08-12T06:46:26.617Z,33.52
2022-08-12T06:48:57.574Z,33.76
2022-08-12T06:51:25.915Z,34.49
2022-08-12T06:53:54.071Z,35.04
2022-08-12T06:56:30.477Z,35.59
2022-08-12T06:59:08.749Z,36.07
2022-08-12T07:01:38.527Z,36.22
2022-08-12T07:04:26.457Z,36.74
2022-08-12T07:06:57.399Z,37.15
2022-08-12T07:10:03.624Z,37.71
2022-08-12T07:12:17.018Z,38.21
2022-08-12T07:14:48.947Z,38.43
2022-08-12T07:17:18.437Z,38.83
2022-08-12T07:19:46.860Z,39.20
2022-08-12T07:22:17.997Z,39.47
2022-08-12T07:25:07.626Z,39.88
2022-08-12T07:27:40.788Z,40.29
2022-08-12T07:30:10.923Z,40.68
2022-08-12T07:32:41.041Z,41.03
2022-08-12T07:35:09.754Z,41.31
2022-08-12T07:37:41.735Z,41.39
2022-08-12T07:40:12.182Z,41.47
2022-08-12T07:42:44.137Z,41.48
2022-08-12T07:45:12.333Z,41.46
2022-08-12T07:47:43.454Z,41.58
2022-08-12T07:50:11.808Z,41.39
2022-08-12T07:52:43.262Z,41.57
2022-08-12T07:55:11.451Z,41.87
2022-08-12T07:57:49.803Z,42.02
2022-08-12T08:00:18.392Z,42.10
2022-08-12T08:02:54.598Z,42.27
2022-08-12T08:05:23.489Z,42.35
2022-08-12T08:07:53.475Z,42.54
2022-08-12T08:10:21.715Z,42.83
2022-08-12T08:12:54.399Z,43.28
2022-08-12T08:15:38.612Z,43.25
2022-08-12T08:18:18.419Z,42.93
2022-08-12T08:20:54.795Z,43.11
2022-08-12T08:23:34.994Z,43.21
2022-08-12T08:26:05.600Z,43.35
2022-08-12T08:28:36.571Z,43.56
2022-08-12T08:31:04.692Z,43.86
2022-08-12T08:34:05.128Z,43.79
2022-08-12T08:36:24.076Z,44.03
2022-08-12T08:38:57.808Z,44.18
2022-08-12T08:42:13.922Z,44.15
2022-08-12T08:44:32.515Z,44.45
2022-08-12T08:49:29.566Z,44.97
2022-08-12T08:54:26.922Z,45.63
2022-08-12T08:56:54.904Z,45.58
2022-08-12T08:59:25.070Z,45.67
2022-08-12T09:01:53.132Z,45.64
2022-08-12T09:05:13.564Z,45.42
2022-08-12T09:07:16.538Z,45.64
2022-08-12T09:12:54.328Z,45.79
2022-08-12T09:15:34.906Z,45.57
2022-08-12T09:18:08.426Z,45.31
2022-08-12T09:20:37.392Z,45.12
2022-08-12T09:23:59.321Z,45.38
2022-08-12T09:25:56.833Z,45.56
2022-08-12T09:28:30.844Z,45.48
2022-08-12T09:30:59.843Z,45.72
2022-08-12T09:34:28.353Z,45.77
2022-08-12T09:36:31.441Z,45.96
2022-08-12T09:40:08.126Z,46.15
2022-08-12T09:42:39.058Z,46.63
2022-08-12T09:46:05.208Z,46.79
2022-08-12T09:48:19.771Z,46.94
2022-08-12T09:50:52.000Z,47.41
2022-08-12T09:53:36.399Z,47.53
2022-08-12T09:56:59.023Z,47.42
2022-08-12T09:59:02.886Z,47.54
2022-08-12T10:01:35.459Z,47.67
2022-08-12T10:04:20.567Z,48.28
2022-08-12T10:06:55.079Z,49.22
2022-08-12T10:09:28.678Z,49.94
2022-08-12T10:12:53.558Z,50.05
2022-08-12T10:16:01.540Z,50.23
2022-08-12T10:20:44.761Z,48.84
2022-08-12T10:23:12.900Z,48.59
2022-08-12T10:26:35.547Z,48.48
2022-08-12T10:30:01.453Z,48.64
2022-08-12T10:32:21.783Z,48.85
2022-08-12T10:34:41.196Z,48.57
2022-08-12T10:38:07.392Z,48.59
2022-08-12T10:40:15.755Z,48.38
2022-08-12T10:43:05.591Z,48.63
2022-08-12T10:45:35.743Z,48.99
2022-08-12T10:48:20.354Z,49.80
2022-08-12T10:50:58.381Z,50.92
2022-08-12T10:53:45.823Z,51.60
2022-08-12T10:56:15.361Z,52.11
2022-08-12T10:58:46.884Z,52.18
2022-08-12T11:01:26.029Z,52.44
2022-08-12T11:04:32.103Z,52.10
2022-08-12T11:07:06.646Z,51.46
2022-08-12T11:09:59.753Z,51.33
2022-08-12T11:12:55.609Z,51.70
2022-08-12T11:15:20.649Z,52.65
2022-08-12T11:17:55.911Z,52.93
2022-08-12T11:20:30.951Z,53.22
2022-08-12T11:22:59.682Z,53.53
2022-08-12T11:25:56.763Z,53.97
2022-08-12T11:28:16.151Z,53.40
2022-08-12T11:30:44.192Z,52.34
2022-08-12T11:33:24.347Z,52.05
2022-08-12T11:36:14.654Z,52.15
2022-08-12T11:38:42.882Z,51.74
2022-08-12T11:41:27.910Z,51.23
2022-08-12T11:43:59.315Z,50.58
2022-08-12T11:46:27.239Z,49.99
2022-08-12T11:48:59.748Z,48.83
2022-08-12T11:51:27.549Z,47.55
2022-08-12T11:54:04.637Z,46.18
2022-08-12T11:56:38.487Z,45.15
2022-08-12T12:02:05.197Z,42.93
2022-08-12T12:04:35.238Z,42.09
2022-08-12T12:07:07.579Z,41.50
2022-08-12T12:09:52.814Z,40.98
2022-08-12T12:12:22.452Z,40.40
2022-08-12T12:14:54.125Z,39.65
2022-08-12T12:17:22.223Z,39.24
2022-08-12T12:19:53.212Z,38.82
2022-08-12T12:22:23.422Z,38.60
2022-08-12T12:24:54.981Z,38.52
2022-08-12T12:28:04.792Z,38.41
2022-08-12T12:30:18.623Z,38.35
2022-08-12T12:32:54.797Z,38.38
2022-08-12T12:36:16.441Z,38.36
2022-08-12T12:38:12.971Z,38.28
2022-08-12T12:40:41.565Z,38.22
2022-08-12T12:43:12.283Z,38.19
2022-08-12T12:45:44.066Z,37.99
2022-08-12T12:48:14.992Z,38.14
2022-08-12T12:50:51.679Z,37.90
2022-08-12T12:54:06.839Z,38.08
2022-08-12T12:56:15.475Z,38.03
2022-08-12T12:58:44.036Z,37.89
2022-08-12T13:01:26.663Z,37.93
2022-08-12T13:04:01.687Z,37.81
2022-08-12T13:06:32.483Z,37.70
2022-08-12T13:09:03.777Z,37.65
2022-08-12T13:11:41.692Z,37.69
2022-08-12T13:14:29.064Z,37.75
2022-08-12T13:17:02.688Z,37.77
2022-08-12T13:19:37.637Z,37.87
2022-08-12T13:22:23.833Z,37.84
2022-08-12T13:24:56.191Z,37.56
2022-08-12T13:27:34.374Z,37.61
2022-08-12T13:30:07.038Z,37.31
2022-08-12T13:32:39.320Z,37.61
2022-08-12T13:35:20.285Z,37.43
2022-08-12T13:37:59.306Z,37.49
2022-08-12T13:40:32.325Z,37.17
2022-08-12T13:43:02.054Z,37.21
2022-08-12T13:45:31.091Z,37.13
2022-08-12T13:48:02.026Z,37.07
2022-08-12T13:50:32.783Z,37.04
2022-08-12T13:53:06.435Z,37.12
2022-08-12T13:56:01.371Z,37.17
2022-08-12T13:58:30.775Z,36.90
2022-08-12T14:01:05.947Z,37.06
2022-08-12T14:03:49.931Z,36.95
2022-08-12T14:06:19.819Z,36.99
2022-08-12T14:08:49.645Z,37.00
2022-08-12T14:11:18.242Z,37.02
2022-08-12T14:14:04.082Z,37.06
2022-08-12T14:16:48.673Z,37.13
2022-08-12T14:19:24.241Z,37.13
2022-08-12T14:22:01.139Z,37.17
2022-08-12T14:24:40.333Z,37.17
2022-08-12T14:27:10.288Z,37.02
2022-08-12T14:30:05.591Z,37.09
2022-08-12T14:32:35.537Z,36.97
2022-08-12T14:35:05.217Z,36.89
2022-08-12T14:37:56.642Z,36.87
2022-08-12T14:40:27.652Z,36.86
2022-08-12T14:42:57.089Z,36.93
2022-08-12T14:45:45.326Z,36.96
2022-08-12T14:48:15.147Z,36.97
2022-08-12T14:51:02.847Z,36.89
2022-08-12T14:59:55.729Z,36.85
2022-08-12T15:02:21.100Z,36.91
2022-08-12T15:04:59.128Z,36.70
2022-08-12T15:07:43.796Z,36.79
2022-08-12T15:10:25.412Z,36.74
2022-08-12T15:13:07.292Z,36.60
2022-08-12T15:15:37.532Z,36.55
2022-08-12T15:18:12.644Z,36.53
2022-08-12T15:20:42.612Z,36.55
2022-08-12T15:23:17.648Z,36.50
2022-08-12T15:25:49.958Z,36.38
2022-08-12T15:28:33.360Z,36.39
2022-08-12T15:31:02.494Z,36.39
2022-08-12T15:33:44.813Z,36.40
2022-08-12T15:36:14.184Z,36.40
2022-08-12T15:38:47.209Z,36.42
2022-08-12T15:41:16.466Z,36.29
2022-08-12T15:44:17.056Z,36.08
2022-08-12T15:46:37.392Z,36.34
2022-08-12T15:49:16.733Z,36.31
2022-08-12T15:51:59.627Z,36.32
2022-08-12T15:54:34.639Z,36.32
2022-08-12T15:57:08.379Z,36.33
2022-08-12T16:00:00.046Z,36.31
2022-08-12T16:02:29.569Z,36.19
2022-08-12T16:04:58.705Z,36.11
2022-08-12T16:07:31.121Z,36.04
2022-08-12T16:10:07.083Z,35.97
2022-08-12T16:12:43.152Z,35.91
2022-08-12T16:15:13.670Z,35.89
2022-08-12T16:18:17.860Z,35.89
2022-08-12T16:20:33.983Z,35.80
2022-08-12T16:23:04.444Z,35.73
2022-08-12T16:26:05.128Z,35.72
2022-08-12T16:28:33.844Z,35.65
2022-08-12T16:31:03.437Z,35.61
2022-08-12T16:33:36.054Z,35.53
2022-08-12T16:36:25.575Z,35.52
2022-08-12T16:38:54.567Z,35.46
2022-08-12T16:41:23.400Z,35.12
2022-08-12T16:43:53.436Z,35.38
2022-08-12T16:46:32.237Z,35.33
2022-08-12T16:49:04.309Z,35.03
2022-08-12T16:51:40.444Z,35.21
2022-08-12T16:54:12.775Z,35.16
2022-08-12T16:56:50.753Z,35.07
2022-08-12T16:59:23.063Z,34.99
2022-08-12T17:01:54.027Z,34.93
2022-08-12T17:04:24.145Z,34.89
2022-08-12T17:06:52.671Z,34.82
2022-08-12T17:09:20.843Z,34.81
2022-08-12T17:11:49.258Z,34.73
2022-08-12T17:14:23.061Z,34.74
2022-08-12T17:16:55.421Z,34.53
2022-08-12T17:20:16.919Z,34.60
2022-08-12T17:22:15.445Z,34.63
2022-08-12T17:24:54.427Z,34.60
2022-08-12T17:27:23.666Z,34.49
2022-08-12T17:30:00.987Z,34.46
2022-08-12T17:32:36.898Z,34.28
2022-08-12T17:35:30.243Z,34.40
2022-08-12T17:38:06.331Z,34.33
2022-08-12T17:40:37.081Z,34.29
2022-08-12T17:43:55.558Z,34.26
2022-08-12T17:45:59.097Z,34.27
2022-08-12T17:48:34.866Z,34.21
2022-08-12T17:51:15.640Z,34.10
2022-08-12T17:54:11.004Z,34.06
2022-08-12T17:56:36.882Z,33.98
2022-08-12T17:59:07.394Z,33.91
2022-08-12T18:01:36.134Z,33.86
2022-08-12T18:04:22.840Z,33.78
2022-08-12T18:06:52.160Z,33.72
2022-08-12T18:09:21.285Z,33.68
2022-08-12T18:12:08.100Z,33.59
2022-08-12T18:14:36.719Z,33.54
2022-08-12T18:17:08.584Z,33.51
2022-08-12T18:20:06.134Z,33.42
2022-08-12T18:22:31.329Z,33.39
2022-08-12T18:25:04.011Z,33.34
2022-08-12T18:27:42.164Z,33.27
2022-08-12T18:30:16.517Z,33.22
2022-08-12T18:32:58.906Z,33.16
2022-08-12T18:35:46.869Z,33.11
2022-08-12T18:38:20.387Z,32.96
2022-08-12T18:41:09.558Z,32.92
2022-08-12T18:43:57.632Z,32.86
2022-08-12T18:46:29.894Z,32.73
2022-08-12T18:49:16.990Z,32.70
2022-08-12T18:51:54.852Z,32.63
2022-08-12T18:54:34.862Z,32.13
2022-08-12T18:57:19.260Z,32.37
2022-08-12T18:59:59.756Z,32.41
2022-08-12T19:02:33.874Z,32.32
2022-08-12T19:05:09.311Z,32.23
2022-08-12T19:07:49.785Z,32.14
2022-08-12T19:10:28.931Z,32.06
2022-08-12T19:13:21.167Z,31.95
2022-08-12T19:15:53.397Z,31.89
2022-08-12T19:18:22.023Z,31.81
2022-08-12T19:20:50.648Z,31.73
2022-08-12T19:23:22.225Z,31.66
2022-08-12T19:26:01.024Z,31.59
2022-08-12T19:31:17.474Z,31.40
2022-08-12T19:34:00.933Z,31.29
2022-08-12T19:36:34.646Z,31.20
2022-08-12T19:39:14.754Z,31.15
2022-08-12T19:42:00.416Z,31.09
2022-08-12T19:44:29.864Z,31.01
2022-08-12T19:47:02.664Z,30.95
2022-08-12T19:49:30.473Z,30.86
2022-08-12T19:51:59.742Z,30.80
2022-08-12T19:54:30.299Z,30.71
2022-08-12T19:56:59.758Z,30.67
2022-08-12T19:59:42.900Z,30.62
2022-08-12T20:02:33.098Z,30.52
2022-08-12T20:06:03.100Z,30.45
2022-08-12T20:07:59.326Z,30.37
2022-08-12T20:10:35.339Z,30.28
2022-08-12T20:13:17.591Z,30.12
2022-08-12T20:15:49.819Z,30.03
2022-08-12T20:18:44.641Z,30.02
2022-08-12T20:21:14.757Z,29.93
2022-08-12T20:24:00.362Z,29.83
2022-08-12T20:26:30.701Z,29.78
2022-08-12T20:28:59.813Z,29.69
2022-08-12T20:31:31.624Z,29.62
2022-08-12T20:34:00.127Z,29.57
2022-08-12T20:36:41.538Z,29.47
2022-08-12T20:39:51.158Z,29.44
2022-08-12T20:42:01.900Z,29.38
2022-08-12T20:44:30.749Z,29.33
2022-08-12T20:47:11.857Z,29.31
2022-08-12T20:49:55.592Z,29.25
2022-08-12T20:52:30.085Z,29.21
2022-08-12T20:54:58.371Z,29.17
2022-08-12T20:57:37.574Z,29.01
2022-08-12T21:00:16.595Z,29.07
2022-08-12T21:02:50.159Z,29.04
2022-08-12T21:06:09.501Z,29.02
2022-08-12T21:08:26.631Z,28.96
2022-08-12T21:10:59.199Z,28.92
2022-08-12T21:13:29.456Z,28.91
2022-08-12T21:16:09.876Z,28.87
2022-08-12T21:18:38.362Z,28.80
2022-08-12T21:21:06.761Z,28.80
2022-08-12T21:23:50.981Z,28.77
2022-08-12T21:26:19.783Z,28.74
2022-08-12T21:28:58.129Z,28.68
2022-08-12T21:32:40.110Z,28.66
2022-08-12T21:34:21.411Z,28.63
2022-08-12T21:36:53.948Z,28.59
2022-08-12T21:39:35.325Z,28.57
2022-08-12T21:42:06.831Z,28.29
2022-08-12T21:45:45.457Z,28.45
2022-08-12T21:47:25.364Z,28.41
2022-08-12T21:50:06.815Z,28.37
2022-08-12T21:52:36.432Z,28.33
2022-08-12T21:55:08.097Z,28.28
2022-08-12T21:57:50.555Z,28.24
2022-08-12T22:00:32.364Z,27.92
2022-08-12T22:04:02.061Z,28.13
2022-08-12T22:06:30.547Z,28.08
2022-08-12T22:09:15.144Z,28.03
2022-08-12T22:11:49.158Z,28.00
2022-08-12T22:14:27.986Z,27.82
2022-08-12T22:16:57.783Z,27.93
2022-08-12T22:19:26.760Z,27.94
2022-08-12T22:21:55.622Z,27.90
2022-08-12T22:24:25.862Z,27.87
2022-08-12T22:26:57.086Z,27.80
2022-08-12T22:29:42.797Z,27.78
2022-08-12T22:32:13.265Z,27.72
2022-08-12T22:34:44.545Z,27.68
2022-08-12T22:37:20.235Z,27.65
2022-08-12T22:39:49.129Z,27.66
2022-08-12T22:42:36.072Z,27.41
2022-08-12T22:45:56.073Z,27.56
2022-08-12T22:48:26.555Z,27.50
2022-08-12T22:50:59.358Z,27.49
2022-08-12T22:53:35.805Z,27.47
2022-08-12T22:56:06.712Z,27.38
2022-08-12T22:58:40.297Z,27.40
2022-08-12T23:01:10.999Z,27.38
2022-08-12T23:03:49.085Z,27.37
2022-08-12T23:06:19.944Z,27.36
2022-08-12T23:08:50.678Z,27.05
2022-08-12T23:11:23.763Z,27.36
2022-08-12T23:13:57.021Z,27.33
2022-08-12T23:16:31.789Z,27.19
2022-08-12T23:19:10.250Z,27.33
2022-08-12T23:22:04.943Z,27.32
2022-08-12T23:24:38.386Z,27.36
2022-08-12T23:27:24.929Z,27.36
2022-08-12T23:30:18.831Z,27.31
2022-08-12T23:32:54.732Z,27.33
2022-08-12T23:35:53.602Z,27.35
2022-08-12T23:38:31.068Z,27.31
2022-08-12T23:41:00.986Z,27.29
2022-08-12T23:43:38.929Z,27.27
2022-08-12T23:46:08.540Z,27.26
2022-08-12T23:48:37.619Z,27.21
2022-08-12T23:51:21.956Z,27.18
2022-08-12T23:53:52.917Z,27.18
2022-08-12T23:56:23.629Z,27.16
2022-08-12T23:58:52.786Z,27.08
